Time;durP1;ratioP1;P1;durP2;ratioP2;P2;SDS_P1;SDS_P2;PMS_P1;PMS_P2;Temp;Humidity;BMP_temperature;BMP_pressure;BME280_temperature;BME280_humidity;BME280_pressure;Samples;Min_cycle;Max_cycle;Signal;HPM_P1;HPM_P2
2022/10/08 00:01:39;;;;;;;5.30;1.38;;;;;;;16.76;71.04;101675.78;6205968;23;20035;-72
2022/10/08 00:04:04;;;;;;;6.25;1.40;;;;;;;16.82;70.29;101681.06;6213280;22;20000;-72
2022/10/08 00:06:31;;;;;;;5.72;1.58;;;;;;;16.85;70.73;101675.75;6210658;22;20031;-73
2022/10/08 00:09:02;;;;;;;7.95;1.70;;;;;;;16.85;70.60;101679.28;6212632;22;20503;-72
2022/10/08 00:11:31;;;;;;;4.88;1.70;;;;;;;16.87;70.45;101685.44;6237543;22;20008;-72
2022/10/08 00:13:57;;;;;;;4.68;1.52;;;;;;;16.84;70.72;101684.53;6208197;22;20095;-71
2022/10/08 00:16:52;;;;;;;6.90;1.60;;;;;;;16.71;71.32;101685.44;6215407;22;20091;-72
2022/10/08 00:19:17;;;;;;;5.28;1.50;;;;;;;16.87;70.60;101689.81;6205665;22;20012;-71
2022/10/08 00:21:44;;;;;;;4.82;1.33;;;;;;;16.86;70.58;101688.94;6212748;22;20022;-71
2022/10/08 00:24:15;;;;;;;6.22;1.60;;;;;;;16.77;70.85;101681.03;6208130;22;20099;-72
2022/10/08 00:26:41;;;;;;;5.88;1.50;;;;;;;16.85;70.60;101683.66;6218906;22;20007;-72
2022/10/08 00:29:06;;;;;;;5.60;1.65;;;;;;;16.88;70.50;101681.94;6218852;22;20000;-72
2022/10/08 00:31:40;;;;;;;7.88;1.92;;;;;;;16.51;71.66;101702.03;6212025;22;20721;-72
2022/10/08 00:34:11;;;;;;;7.00;2.00;;;;;;;16.53;71.79;101692.38;6214428;23;20404;-72
2022/10/08 00:36:37;;;;;;;6.07;1.73;;;;;;;16.77;71.05;101699.44;6214602;22;20431;-72
2022/10/08 00:39:05;;;;;;;5.35;1.75;;;;;;;16.79;70.72;101697.72;6218532;22;20019;-72
2022/10/08 00:41:33;;;;;;;5.35;1.75;;;;;;;16.84;70.60;101690.69;6215957;22;20004;-72
2022/10/08 00:44:03;;;;;;;6.72;1.70;;;;;;;16.88;70.52;101687.19;6214044;22;20301;-72
2022/10/08 00:46:34;;;;;;;7.38;1.65;;;;;;;16.74;71.14;101694.19;6218009;22;20053;-72
2022/10/08 00:49:10;;;;;;;7.75;2.00;;;;;;;16.73;71.38;101691.56;6218119;22;20011;-72
2022/10/08 00:51:40;;;;;;;6.05;1.70;;;;;;;16.65;71.86;101694.16;6216228;22;20518;-71
2022/10/08 00:54:05;;;;;;;5.60;1.73;;;;;;;16.63;71.61;101693.31;6211175;22;20019;-74
2022/10/08 00:56:35;;;;;;;6.28;2.17;;;;;;;16.62;71.63;101691.56;6214631;22;20008;-72
2022/10/08 00:59:01;;;;;;;7.45;2.05;;;;;;;16.66;71.32;101687.16;6213067;23;20412;-73
2022/10/08 01:01:28;;;;;;;4.65;1.95;;;;;;;16.75;71.21;101697.72;6215979;22;20071;-71
2022/10/08 01:03:54;;;;;;;9.45;2.20;;;;;;;16.61;71.62;101688.03;6213778;23;20307;-72
2022/10/08 01:06:38;;;;;;;6.60;2.40;;;;;;;16.74;71.33;101688.94;6216261;22;20038;-72
2022/10/08 01:09:33;;;;;;;6.97;2.10;;;;;;;16.74;71.42;101688.06;6216998;22;20004;-72
2022/10/08 01:12:22;;;;;;;9.95;2.20;;;;;;;16.58;72.11;101689.75;6194135;22;20190;-72
2022/10/08 01:14:55;;;;;;;6.57;2.20;;;;;;;16.66;72.23;101689.78;6217555;23;20008;-72
2022/10/08 01:17:20;;;;;;;8.88;2.10;;;;;;;16.65;72.20;101682.78;6218763;22;20185;-72
2022/10/08 01:20:23;;;;;;;5.97;2.05;;;;;;;16.69;71.78;101684.53;6212003;22;20490;-72
2022/10/08 01:23:09;;;;;;;7.57;2.00;;;;;;;16.69;71.92;101684.53;6215197;23;20648;-72
2022/10/08 01:25:54;;;;;;;9.10;2.13;;;;;;;16.63;72.37;101693.31;6209272;22;20091;-72
2022/10/08 01:28:40;;;;;;;;;;;;;;;16.59;72.17;101694.13;6218681;23;20008;-72
2022/10/08 01:31:16;;;;;;;6.68;1.83;;;;;;;16.64;71.10;101695.06;6215049;22;20401;-72
2022/10/08 01:33:51;;;;;;;5.95;1.88;;;;;;;16.56;70.75;101687.13;6215562;22;20012;-72
2022/10/08 01:36:19;;;;;;;7.50;1.98;;;;;;;16.46;70.72;101690.63;6215514;22;20027;-72
2022/10/08 01:38:50;;;;;;;7.65;1.60;;;;;;;16.39;70.55;101693.22;6213292;23;20027;-73
2022/10/08 01:41:17;;;;;;;6.13;1.80;;;;;;;16.31;70.84;101693.19;6214594;22;20563;-72
2022/10/08 01:43:48;;;;;;;5.25;1.42;;;;;;;16.26;70.60;101687.06;6207544;22;20479;-72
2022/10/08 01:46:19;;;;;;;7.28;2.20;;;;;;;16.21;70.30;101696.69;6217534;22;20079;-72
2022/10/08 01:48:48;;;;;;;5.82;1.90;;;;;;;16.01;71.49;101691.34;6215608;22;20015;-72
2022/10/08 01:51:27;;;;;;;8.27;1.75;;;;;;;15.97;72.13;101689.59;6221041;22;20015;-72
2022/10/08 01:53:54;;;;;;;7.22;1.63;;;;;;;16.02;71.15;101693.09;6210506;22;20300;-72
2022/10/08 01:56:24;;;;;;;7.82;1.60;;;;;;;15.95;71.25;101691.31;6217756;22;20035;-73
2022/10/08 01:58:54;;;;;;;9.10;1.83;;;;;;;15.88;71.28;101704.41;6217513;22;20013;-71
2022/10/08 02:01:31;;;;;;;11.60;1.65;;;;;;;15.88;71.02;101702.69;6214935;22;20012;-71
2022/10/08 02:06:47;;;;;;;8.95;2.08;;;;;;;15.65;71.83;101702.56;6213927;22;20423;-72
2022/10/08 02:09:12;;;;;;;8.73;1.65;;;;;;;15.63;71.67;101703.41;6217043;22;20004;-73
2022/10/08 02:11:38;;;;;;;4.97;1.80;;;;;;;15.65;71.14;101714.81;6201036;22;20494;-72
2022/10/08 02:14:04;;;;;;;9.00;1.98;;;;;;;15.63;71.01;101706.03;6216627;22;20468;-71
2022/10/08 02:16:33;;;;;;;8.48;1.80;;;;;;;15.62;70.59;101712.16;6215177;22;20014;-72
2022/10/08 02:19:31;;;;;;;7.65;1.80;;;;;;;15.63;70.49;101714.81;6213222;22;20024;-71
2022/10/08 02:22:00;;;;;;;7.05;1.70;;;;;;;15.60;70.17;101712.19;6166205;22;20031;-72
2022/10/08 02:24:32;;;;;;;7.28;1.70;;;;;;;15.45;71.15;101714.66;6211528;22;20014;-72
2022/10/08 02:27:02;;;;;;;7.60;1.80;;;;;;;15.53;70.97;101712.13;6217205;22;20011;-72
2022/10/08 02:29:41;;;;;;;6.25;1.90;;;;;;;15.54;71.30;101717.41;6216599;22;20384;-71
2022/10/08 02:32:14;;;;;;;7.30;1.80;;;;;;;15.58;71.67;101720.91;6217139;22;20062;-72
2022/10/08 02:34:47;;;;;;;9.65;1.80;;;;;;;15.72;71.58;101720.13;6221374;22;20019;-72
2022/10/08 02:37:18;;;;;;;7.65;1.70;;;;;;;15.67;71.47;101719.22;6212464;23;20012;-72
2022/10/08 02:39:50;;;;;;;9.82;1.95;;;;;;;15.68;71.13;101720.09;6212404;22;20496;-72
2022/10/08 02:42:21;;;;;;;7.55;1.50;;;;;;;15.62;70.73;101718.31;6212886;22;20498;-72
2022/10/08 02:44:59;;;;;;;5.53;1.50;;;;;;;15.58;70.44;101721.78;6217653;22;20019;-72
2022/10/08 02:47:28;;;;;;;7.28;1.70;;;;;;;15.50;70.26;101726.06;6217674;23;20328;-72
2022/10/08 02:50:01;;;;;;;9.13;1.98;;;;;;;15.34;71.14;101721.59;6209582;22;20046;-72
2022/10/08 02:52:31;;;;;;;8.87;1.80;;;;;;;15.27;71.63;101728.53;6216951;22;20358;-72
2022/10/08 02:54:59;;;;;;;5.10;1.40;;;;;;;15.30;70.78;101728.59;6214189;22;20018;-72
2022/10/08 02:57:47;;;;;;;6.57;1.70;;;;;;;15.29;70.43;101732.06;6215887;22;20034;-71
2022/10/08 03:00:13;;;;;;;6.35;1.67;;;;;;;15.28;70.46;101737.31;6214588;22;20008;-72
2022/10/08 03:03:02;;;;;;;8.20;1.80;;;;;;;15.25;70.07;101738.16;6216339;23;20201;-72
2022/10/08 03:05:28;;;;;;;5.97;1.83;;;;;;;15.23;70.14;101746.91;6217367;23;20317;-72
2022/10/08 03:07:55;;;;;;;9.27;1.77;;;;;;;15.18;70.46;101748.63;6210114;22;20038;-73
2022/10/08 03:10:24;;;;;;;5.03;1.70;;;;;;;15.21;70.42;101746.88;6221052;23;20406;-72
2022/10/08 03:12:58;;;;;;;5.05;1.70;;;;;;;15.24;70.95;101748.66;6209722;22;20004;-73
2022/10/08 03:15:24;;;;;;;7.00;1.90;;;;;;;15.34;71.29;101747.88;6220511;22;20004;-73
2022/10/08 03:17:50;;;;;;;6.47;2.08;;;;;;;15.33;71.59;101746.97;6211077;22;20043;-72
2022/10/08 03:20:15;;;;;;;9.10;2.05;;;;;;;15.45;71.33;101754.06;6218807;22;20004;-72
2022/10/08 03:22:41;;;;;;;5.65;1.70;;;;;;;15.50;71.03;101751.47;6218760;23;20255;-73
2022/10/08 03:25:06;;;;;;;6.30;1.70;;;;;;;15.50;70.67;101754.09;6210941;22;20425;-72
2022/10/08 03:27:33;;;;;;;7.85;2.00;;;;;;;15.42;70.45;101754.94;6216285;22;20007;-72
2022/10/08 03:29:59;;;;;;;7.07;2.03;;;;;;;15.29;70.16;101760.97;6211144;22;20106;-72
2022/10/08 03:32:25;;;;;;;5.50;1.77;;;;;;;15.26;70.19;101765.31;6238112;22;20177;-71
2022/10/08 03:34:51;;;;;;;5.75;1.75;;;;;;;15.22;70.73;101768.78;6214302;22;20011;-72
2022/10/08 03:37:17;;;;;;;7.50;1.80;;;;;;;15.26;71.02;101768.81;6212505;22;20008;-71
2022/10/08 03:39:43;;;;;;;9.73;1.98;;;;;;;15.35;71.19;101773.28;6212181;22;20400;-72
2022/10/08 03:42:08;;;;;;;7.32;1.70;;;;;;;15.35;71.51;101768.91;6210359;22;20035;-71
2022/10/08 03:44:34;;;;;;;5.43;1.80;;;;;;;15.36;71.10;101772.41;6219027;22;20043;-72
2022/10/08 03:46:59;;;;;;;11.32;2.00;;;;;;;15.44;70.56;101776.84;6216353;22;20004;-72
2022/10/08 03:49:25;;;;;;;5.47;1.83;;;;;;;15.44;69.67;101773.34;6210863;22;20394;-72
2022/10/08 03:51:50;;;;;;;7.82;1.50;;;;;;;15.33;69.89;101772.38;6210009;23;20004;-72
2022/10/08 03:54:15;;;;;;;6.05;1.73;;;;;;;15.32;69.63;101783.75;6212594;22;20015;-72
2022/10/08 03:56:41;;;;;;;9.60;1.75;;;;;;;15.25;70.38;101785.44;6215746;23;20015;-72
2022/10/08 03:59:06;;;;;;;7.43;1.88;;;;;;;15.19;71.00;101785.38;6215082;23;20004;-72
2022/10/08 04:01:31;;;;;;;4.95;1.60;;;;;;;15.12;71.17;101788.84;6207394;23;20008;-72
2022/10/08 04:03:57;;;;;;;5.60;1.80;;;;;;;15.20;70.65;101792.41;6216295;22;20035;-73
2022/10/08 04:06:22;;;;;;;8.85;1.92;;;;;;;15.28;69.73;101793.34;6215507;22;20266;-72
2022/10/08 04:08:48;;;;;;;7.03;1.42;;;;;;;15.20;69.51;101797.66;6218179;22;20008;-73
2022/10/08 04:11:15;;;;;;;7.20;1.50;;;;;;;15.12;69.61;101790.59;6220380;23;20387;-71
2022/10/08 04:13:41;;;;;;;9.32;1.55;;;;;;;15.09;69.44;101799.31;6207923;22;20432;-73
2022/10/08 04:16:12;;;;;;;6.68;1.50;;;;;;;15.09;69.05;101793.16;6220991;22;20470;-72
2022/10/08 04:18:38;;;;;;;5.47;1.50;;;;;;;15.21;68.11;101798.53;6217936;22;20035;-72
2022/10/08 04:21:05;;;;;;;8.73;1.70;;;;;;;14.83;68.14;101806.03;6236014;22;20083;-72
2022/10/08 04:23:33;;;;;;;9.68;1.30;;;;;;;14.83;67.76;101811.28;6212486;22;20066;-72
2022/10/08 04:25:59;;;;;;;6.43;1.33;;;;;;;14.86;67.44;101812.22;6213596;22;20018;-73
2022/10/08 04:28:24;;;;;;;4.95;1.25;;;;;;;14.99;67.64;101814.09;6218549;22;20110;-72
2022/10/08 04:30:58;;;;;;;8.70;1.40;;;;;;;14.91;66.36;101817.50;6219532;22;20474;-72
2022/10/08 04:33:24;;;;;;;6.28;1.00;;;;;;;15.09;66.24;101814.19;6209902;22;20137;-71
2022/10/08 04:35:49;;;;;;;7.50;1.20;;;;;;;15.00;66.64;101810.59;6211491;23;20369;-73
2022/10/08 04:38:14;;;;;;;6.45;1.45;;;;;;;15.02;66.29;101815.88;6235477;22;20019;-72
2022/10/08 04:40:40;;;;;;;4.70;1.02;;;;;;;15.00;66.96;101817.63;6218954;23;20345;-73
2022/10/08 04:43:05;;;;;;;8.77;1.30;;;;;;;15.03;66.61;101821.13;6218448;22;20043;-72
2022/10/08 04:45:30;;;;;;;7.25;1.10;;;;;;;15.01;66.41;101814.97;6212990;22;20008;-71
2022/10/08 04:47:56;;;;;;;4.65;1.27;;;;;;;14.87;66.60;101819.22;6218392;22;20416;-72
2022/10/08 04:50:21;;;;;;;8.98;1.30;;;;;;;14.65;67.21;101824.19;6213130;23;20446;-72
2022/10/08 04:52:46;;;;;;;7.22;1.40;;;;;;;14.86;65.99;101822.72;6211618;23;20004;-71
2022/10/08 04:55:12;;;;;;;7.35;1.40;;;;;;;14.81;66.28;101836.66;6219207;23;20015;-72
2022/10/08 04:57:37;;;;;;;7.25;1.50;;;;;;;14.88;65.25;101833.25;6231172;22;20015;-71
2022/10/08 05:00:04;;;;;;;11.13;1.27;;;;;;;14.95;65.01;101829.78;6215725;23;20425;-72
2022/10/08 05:02:30;;;;;;;6.93;1.48;;;;;;;14.91;65.54;101833.25;6180156;22;20047;-71
2022/10/08 05:04:55;;;;;;;7.90;1.30;;;;;;;14.75;65.33;101833.97;6186536;23;20312;-71
2022/10/08 05:07:20;;;;;;;8.13;1.33;;;;;;;14.94;64.28;101842.03;6200858;23;20367;-72
2022/10/08 05:09:46;;;;;;;6.00;1.15;;;;;;;14.85;65.12;101849.81;6183630;23;20750;-72
2022/10/08 05:12:11;;;;;;;6.40;1.20;;;;;;;14.92;65.32;101848.16;6215958;23;20087;-71
2022/10/08 05:14:36;;;;;;;8.52;1.50;;;;;;;14.70;65.78;101856.66;6214751;23;20015;-72
2022/10/08 05:17:02;;;;;;;6.78;1.40;;;;;;;14.89;65.18;101855.97;6219761;23;20493;-72
2022/10/08 05:19:27;;;;;;;5.40;1.30;;;;;;;14.90;64.92;101863.00;6190751;23;20348;-72
2022/10/08 05:21:53;;;;;;;6.80;1.33;;;;;;;14.93;64.72;101863.94;6210661;23;20508;-72
2022/10/08 05:24:18;;;;;;;5.07;1.10;;;;;;;14.77;65.52;101868.97;6218366;23;20050;-72
2022/10/08 05:26:44;;;;;;;5.85;1.40;;;;;;;14.59;65.37;101867.88;6211781;23;20043;-72
2022/10/08 05:29:10;;;;;;;6.55;1.10;;;;;;;14.59;65.30;101875.75;6216998;23;20083;-71
2022/10/08 05:31:36;;;;;;;4.05;1.10;;;;;;;14.90;64.75;101870.88;6207394;23;20027;-72
2022/10/08 05:34:02;;;;;;;5.43;1.48;;;;;;;14.77;65.73;101868.97;6218091;23;20008;-72
2022/10/08 05:36:30;;;;;;;5.70;1.33;;;;;;;14.92;64.41;101871.78;6212806;23;20008;-71
2022/10/08 05:38:58;;;;;;;6.10;1.00;;;;;;;14.72;64.84;101874.16;6210926;23;20023;-71
2022/10/08 05:41:26;;;;;;;5.50;1.05;;;;;;;14.64;65.31;101886.31;6218052;23;20004;-72
2022/10/08 05:43:56;;;;;;;5.63;1.20;;;;;;;14.72;64.98;101889.03;6206804;23;20016;-71
2022/10/08 05:46:24;;;;;;;7.03;1.10;;;;;;;14.82;64.49;101886.53;6215679;23;20011;-71
2022/10/08 05:48:54;;;;;;;3.22;1.15;;;;;;;14.97;64.19;101893.72;6216722;23;20023;-71
2022/10/08 05:51:19;;;;;;;7.25;1.20;;;;;;;14.56;64.25;101895.84;6211234;23;20078;-72
2022/10/08 05:53:47;;;;;;;7.05;1.00;;;;;;;14.85;63.20;101898.81;6214851;23;20464;-72
2022/10/08 05:56:14;;;;;;;6.28;1.33;;;;;;;15.11;62.90;101905.28;6210933;23;20612;-71
2022/10/08 05:58:41;;;;;;;4.57;1.05;;;;;;;14.90;63.30;101908.50;6219012;23;20020;-73
2022/10/08 06:01:10;;;;;;;5.68;1.40;;;;;;;14.97;62.59;101914.72;6214630;23;20008;-72
2022/10/08 06:03:36;;;;;;;5.70;1.02;;;;;;;15.26;61.88;101918.56;6207130;23;20012;-71
2022/10/08 06:06:03;;;;;;;4.35;1.10;;;;;;;15.12;63.05;101925.44;6217435;23;20004;-71
2022/10/08 06:08:29;;;;;;;4.90;1.30;;;;;;;15.28;61.99;101927.34;6213853;23;20016;-72
2022/10/08 06:10:55;;;;;;;11.30;1.98;;;;;;;15.45;61.48;101930.16;6216933;23;20102;-73
2022/10/08 06:13:21;;;;;;;5.45;1.00;;;;;;;15.21;62.30;101938.66;6216951;23;20122;-72
2022/10/08 06:15:58;;;;;;;6.15;1.05;;;;;;;15.44;61.99;101939.78;6206497;23;20015;-72
2022/10/08 06:18:25;;;;;;;7.13;1.02;;;;;;;15.24;62.14;101949.22;6218124;23;20008;-73
2022/10/08 06:20:51;;;;;;;6.10;1.02;;;;;;;15.12;62.99;101953.44;6216395;23;20008;-71
2022/10/08 06:23:18;;;;;;;6.75;1.20;;;;;;;14.90;62.67;101953.16;6221002;23;20040;-72
2022/10/08 06:25:44;;;;;;;7.28;1.20;;;;;;;14.89;62.83;101959.25;6213070;23;20074;-72
2022/10/08 06:28:09;;;;;;;4.93;1.13;;;;;;;15.03;61.66;101967.31;6216234;23;20562;-72
2022/10/08 06:30:35;;;;;;;4.35;0.98;;;;;;;15.31;60.49;101968.50;6218090;23;20016;-72
2022/10/08 06:33:00;;;;;;;7.90;1.48;;;;;;;15.12;61.25;101975.34;6211628;23;20016;-73
2022/10/08 06:35:26;;;;;;;5.80;1.45;;;;;;;15.30;61.55;101977.28;6218305;23;20102;-72
2022/10/08 06:37:51;;;;;;;5.18;1.10;;;;;;;15.63;60.58;101980.31;6209397;23;20012;-72
2022/10/08 06:40:16;;;;;;;7.03;1.20;;;;;;;15.71;60.35;101986.53;6216745;23;20008;-71
2022/10/08 06:42:42;;;;;;;4.75;0.90;;;;;;;15.50;60.31;101988.88;6215667;23;20590;-71
2022/10/08 06:45:07;;;;;;;6.80;1.35;;;;;;;15.79;59.73;102003.28;6212287;23;20044;-73
2022/10/08 06:47:33;;;;;;;8.27;1.48;;;;;;;15.83;58.28;101998.91;6190709;23;20336;-73
2022/10/08 06:49:59;;;;;;;7.43;1.30;;;;;;;15.64;60.02;102004.84;6209812;23;20095;-72
2022/10/08 06:52:25;;;;;;;8.15;1.33;;;;;;;15.59;60.67;102007.44;6215771;23;20004;-72
2022/10/08 06:54:50;;;;;;;8.63;1.40;;;;;;;15.87;58.32;102000.69;6215384;23;20011;-73
2022/10/08 06:57:16;;;;;;;6.45;1.20;;;;;;;16.01;58.60;102006.09;6213209;23;20024;-73
2022/10/08 06:59:41;;;;;;;5.35;1.15;;;;;;;16.30;58.27;102004.59;6185107;23;20026;-72
2022/10/08 07:02:09;;;;;;;9.40;1.30;;;;;;;16.04;58.21;102009.63;6183378;23;20629;-72
2022/10/08 07:04:34;;;;;;;4.88;1.33;;;;;;;15.90;57.53;102010.38;6216655;23;20533;-73
2022/10/08 07:06:59;;;;;;;5.43;1.27;;;;;;;15.95;58.03;102011.28;6220022;23;20012;-72
2022/10/08 07:09:25;;;;;;;6.97;1.20;;;;;;;15.85;57.73;102018.22;6210526;23;20522;-72
2022/10/08 07:11:50;;;;;;;6.75;1.80;;;;;;;15.79;59.19;102026.94;6181941;23;20004;-72
2022/10/08 07:14:15;;;;;;;6.43;1.48;;;;;;;15.87;57.61;102029.63;6207156;23;20444;-72
2022/10/08 07:16:41;;;;;;;5.78;1.08;;;;;;;15.74;58.44;102032.97;6215154;23;20681;-72
2022/10/08 07:19:06;;;;;;;6.85;1.48;;;;;;;16.01;57.02;102037.66;6218749;23;20392;-72
2022/10/08 07:21:31;;;;;;;7.95;1.42;;;;;;;16.05;57.39;102042.06;6207665;23;20244;-73
2022/10/08 07:23:59;;;;;;;4.85;1.30;;;;;;;16.01;56.63;102038.53;6215888;23;20008;-72
2022/10/08 07:26:26;;;;;;;7.57;1.40;;;;;;;16.31;56.35;102047.56;6209456;23;20118;-71
2022/10/08 07:28:57;;;;;;;7.82;1.58;;;;;;;16.21;57.06;102054.50;6213869;23;20012;-72
2022/10/08 07:31:26;;;;;;;8.77;1.55;;;;;;;16.24;57.33;102054.53;6214024;23;20382;-71
2022/10/08 07:33:52;;;;;;;7.47;1.70;;;;;;;16.12;57.60;102065.81;6206932;23;20012;-71
2022/10/08 07:36:20;;;;;;;7.18;1.35;;;;;;;15.99;57.92;102068.31;6218860;23;20046;-73
2022/10/08 07:38:46;;;;;;;7.70;1.60;;;;;;;16.12;57.11;102076.34;6210929;23;20107;-73
2022/10/08 07:41:13;;;;;;;6.20;1.40;;;;;;;15.92;57.89;102080.50;6214818;23;20058;-71
2022/10/08 07:43:42;;;;;;;8.25;1.55;;;;;;;16.02;57.72;102076.25;6182285;23;20043;-73
2022/10/08 07:46:09;;;;;;;8.05;1.63;;;;;;;16.09;58.66;102085.97;6218555;23;20011;-73
2022/10/08 07:48:37;;;;;;;5.63;1.60;;;;;;;16.13;58.53;102090.38;6217911;23;20466;-72
2022/10/08 07:51:12;;;;;;;9.40;1.85;;;;;;;16.19;58.17;102082.56;6213725;23;20008;-72
2022/10/08 07:53:38;;;;;;;8.70;1.70;;;;;;;16.18;57.42;102091.31;6212917;23;20008;-72
2022/10/08 07:56:05;;;;;;;5.30;1.40;;;;;;;16.26;57.52;102088.75;6212532;23;20034;-73
2022/10/08 07:58:30;;;;;;;7.90;1.40;;;;;;;16.04;56.98;102099.06;6217909;23;20082;-72
2022/10/08 08:00:57;;;;;;;6.25;1.40;;;;;;;16.40;56.14;102103.81;6218174;23;20522;-72
2022/10/08 08:03:22;;;;;;;5.35;1.50;;;;;;;16.30;55.79;102104.59;6214674;23;20027;-72
2022/10/08 08:05:47;;;;;;;6.93;1.50;;;;;;;16.33;55.93;102112.53;6216728;23;20111;-71
2022/10/08 08:08:13;;;;;;;6.90;1.67;;;;;;;16.16;55.94;102117.59;6217160;23;20035;-72
2022/10/08 08:10:39;;;;;;;7.03;1.23;;;;;;;16.56;55.37;102112.72;6216072;23;20008;-72
2022/10/08 08:13:04;;;;;;;7.28;1.52;;;;;;;16.66;55.67;102122.47;6217689;23;20012;-72
2022/10/08 08:15:30;;;;;;;7.10;1.60;;;;;;;16.58;55.43;102129.41;6209887;23;20489;-72
2022/10/08 08:17:55;;;;;;;8.35;1.70;;;;;;;16.87;54.40;102129.69;6217776;23;20008;-73
2022/10/08 08:20:21;;;;;;;8.02;1.42;;;;;;;16.79;55.51;102128.72;6213695;23;20019;-72
2022/10/08 08:22:46;;;;;;;7.32;1.40;;;;;;;16.73;55.01;102134.84;6215793;23;20015;-73
2022/10/08 08:25:11;;;;;;;8.93;1.70;;;;;;;16.80;55.23;102138.41;6217002;23;20286;-73
2022/10/08 08:27:37;;;;;;;7.40;1.40;;;;;;;16.77;55.58;102146.28;6207488;23;20012;-74
2022/10/08 08:30:04;;;;;;;9.07;1.60;;;;;;;16.93;53.59;102143.78;6208547;23;20056;-72
2022/10/08 08:32:29;;;;;;;4.40;1.40;;;;;;;17.16;53.53;102143.94;6211719;23;20439;-72
2022/10/08 08:34:54;;;;;;;6.35;1.30;;;;;;;16.93;53.74;102153.44;6218773;23;20023;-73
2022/10/08 08:37:19;;;;;;;5.05;1.25;;;;;;;16.86;54.65;102154.25;6217848;23;20091;-72
2022/10/08 08:39:45;;;;;;;7.80;1.40;;;;;;;16.73;54.97;102161.16;6208169;23;20092;-72
2022/10/08 08:42:21;;;;;;;10.15;1.77;;;;;;;16.96;54.56;102163.97;6217082;23;20362;-71
2022/10/08 08:44:54;;;;;;;6.65;1.30;;;;;;;16.55;54.11;102168.88;6214151;23;20046;-72
2022/10/08 08:47:54;;;;;;;8.25;1.60;;;;;;;16.84;54.41;102171.78;6217551;23;20015;-73
2022/10/08 08:50:27;;;;;;;8.23;1.40;;;;;;;17.13;54.37;102179.94;6194143;23;20016;-74
2022/10/08 08:52:54;;;;;;;6.68;1.25;;;;;;;17.02;53.70;102180.72;6241728;22;20027;-73
2022/10/08 08:55:32;;;;;;;7.97;1.40;;;;;;;17.42;53.89;102181.00;6246650;22;20014;-73
2022/10/08 08:58:22;;;;;;;8.27;1.58;;;;;;;17.15;54.18;102191.34;6246689;22;20098;-73
2022/10/08 09:00:59;;;;;;;5.60;1.52;;;;;;;17.45;53.76;102184.53;6247202;22;20532;-71
2022/10/08 09:03:33;;;;;;;13.35;1.95;;;;;;;17.55;53.54;102190.75;6207555;22;20015;-74
2022/10/08 09:06:04;;;;;;;7.93;1.60;;;;;;;17.56;54.19;102194.28;6218155;22;20004;-72
2022/10/08 09:08:36;;;;;;;12.85;1.52;;;;;;;17.62;54.38;102205.78;6244059;22;20420;-73
2022/10/08 09:11:04;;;;;;;7.13;1.40;;;;;;;17.28;52.51;102207.28;6245156;22;20327;-74
2022/10/08 09:13:34;;;;;;;7.68;1.40;;;;;;;17.08;52.44;102193.06;6246538;22;20341;-71
2022/10/08 09:16:00;;;;;;;5.75;1.30;;;;;;;17.06;53.36;102215.00;6219741;22;20015;-73
2022/10/08 09:18:26;;;;;;;6.05;1.40;;;;;;;16.94;52.96;102219.31;6246473;22;20604;-73
2022/10/08 09:20:51;;;;;;;5.38;1.27;;;;;;;17.06;53.17;102223.81;6234434;22;20497;-73
2022/10/08 09:23:20;;;;;;;11.15;1.50;;;;;;;16.66;54.10;102219.03;6246725;22;20476;-73
2022/10/08 09:25:56;;;;;;;8.88;1.50;;;;;;;16.87;54.45;102227.13;6239988;22;20008;-76
2022/10/08 09:28:43;;;;;;;5.40;1.20;;;;;;;17.13;53.60;102233.53;6246917;22;20469;-74
2022/10/08 09:31:31;;;;;;;9.48;1.63;;;;;;;17.15;53.62;102237.03;6246436;22;20007;-73
2022/10/08 09:34:17;;;;;;;6.47;1.27;;;;;;;17.26;53.14;102239.78;6243425;22;20038;-73
2022/10/08 09:36:50;;;;;;;6.95;1.80;;;;;;;17.15;54.13;102238.78;6244434;22;20305;-73
2022/10/08 09:39:25;;;;;;;5.43;1.23;;;;;;;17.20;50.73;102245.84;6215708;22;20115;-73
2022/10/08 09:42:06;;;;;;;6.32;1.27;;;;;;;17.19;52.04;102240.59;6241786;22;20566;-73
2022/10/08 09:44:58;;;;;;;9.32;1.50;;;;;;;17.28;53.36;102249.44;6217339;22;20165;-72
2022/10/08 09:47:24;;;;;;;6.25;1.40;;;;;;;17.13;52.36;102257.25;6246614;22;20012;-73
2022/10/08 09:50:05;;;;;;;7.85;1.48;;;;;;;17.05;53.38;102253.66;6237648;22;20011;-72
2022/10/08 09:52:32;;;;;;;7.35;1.30;;;;;;;17.41;52.94;102253.06;6247452;22;20450;-72
2022/10/08 09:55:00;;;;;;;10.30;1.45;;;;;;;17.45;52.46;102257.47;6247320;22;20007;-72
2022/10/08 09:57:27;;;;;;;5.30;1.30;;;;;;;17.54;51.19;102254.03;6239032;22;20015;-72
2022/10/08 09:59:57;;;;;;;10.45;1.40;;;;;;;17.71;51.49;102260.31;6243665;22;20102;-72
2022/10/08 10:02:34;;;;;;;6.45;1.50;;;;;;;17.72;52.08;102267.34;6211148;22;20047;-72
2022/10/08 10:05:04;;;;;;;5.95;1.40;;;;;;;17.96;53.05;102261.34;6248569;22;20004;-74
2022/10/08 10:07:43;;;;;;;11.27;1.67;;;;;;;17.96;52.44;102267.50;6244806;22;20065;-72
2022/10/08 10:10:32;;;;;;;6.53;1.50;;;;;;;17.94;52.04;102274.50;6248589;22;20007;-73
2022/10/08 10:13:16;;;;;;;8.43;1.40;;;;;;;17.99;51.62;102274.56;6248758;22;20007;-73
2022/10/08 10:15:59;;;;;;;6.68;1.52;;;;;;;17.92;51.79;102267.47;6237694;22;20007;-73
2022/10/08 10:18:37;;;;;;;7.32;1.35;;;;;;;18.13;50.50;102286.94;6222390;22;20007;-73
2022/10/08 10:21:07;;;;;;;7.22;1.33;;;;;;;17.81;51.09;102277.94;6241789;22;20430;-73
2022/10/08 10:23:45;;;;;;;8.55;1.30;;;;;;;17.91;50.36;102276.25;6243548;22;20008;-73
2022/10/08 10:26:24;;;;;;;7.05;1.50;;;;;;;17.78;48.81;102291.13;6242886;22;20016;-73
2022/10/08 10:28:52;;;;;;;5.50;1.20;;;;;;;17.81;49.06;102294.66;6245890;22;20011;-73
2022/10/08 10:31:22;;;;;;;4.82;0.98;;;;;;;17.69;47.50;102288.44;6246010;22;20006;-71
2022/10/08 10:34:00;;;;;;;5.90;1.38;;;;;;;17.71;48.92;102302.50;6239674;22;20011;-72
2022/10/08 10:36:31;;;;;;;5.53;1.17;;;;;;;17.88;49.87;102292.06;6247534;22;20003;-73
2022/10/08 10:39:18;;;;;;;6.80;1.60;;;;;;;17.65;50.85;102300.72;6242086;22;20405;-73
2022/10/08 10:41:56;;;;;;;6.80;1.35;;;;;;;17.71;51.54;102306.03;6241990;22;20003;-73
2022/10/08 10:44:30;;;;;;;8.52;1.42;;;;;;;17.48;51.30;102312.88;6241997;22;20019;-73
2022/10/08 10:46:58;;;;;;;7.55;1.42;;;;;;;17.50;52.19;102310.25;6249994;22;20316;-73
2022/10/08 10:49:37;;;;;;;7.35;1.40;;;;;;;17.32;50.78;102316.25;6246526;22;20007;-73
2022/10/08 10:52:12;;;;;;;8.75;1.35;;;;;;;17.75;49.93;102317.47;6244971;22;20019;-73
2022/10/08 10:54:49;;;;;;;8.32;1.60;;;;;;;18.05;48.52;102307.09;6219731;22;20014;-71
2022/10/08 10:57:53;;;;;;;10.88;1.52;;;;;;;17.65;49.36;102308.63;6242496;22;20060;-73
2022/10/08 11:00:40;;;;;;;3.70;1.10;;;;;;;18.14;49.76;102315.09;6246764;22;20016;-73
2022/10/08 11:03:25;;;;;;;8.45;1.48;;;;;;;18.03;47.67;102319.44;6241851;22;20030;-73
2022/10/08 11:06:10;;;;;;;7.63;1.50;;;;;;;18.35;47.53;102324.00;6245240;22;20019;-72
2022/10/08 11:08:49;;;;;;;7.40;1.50;;;;;;;18.44;47.41;102326.66;6217995;22;20035;-73
2022/10/08 11:11:37;;;;;;;6.07;1.30;;;;;;;18.00;46.74;102326.44;6244352;22;20546;-72
2022/10/08 11:14:13;;;;;;;8.88;1.73;;;;;;;17.94;46.39;102331.69;6241464;22;20012;-73
2022/10/08 11:16:53;;;;;;;7.10;1.40;;;;;;;18.02;47.02;102330.88;6245462;22;20083;-71
2022/10/08 11:19:28;;;;;;;9.73;1.63;;;;;;;17.64;47.71;102342.91;6245855;22;20003;-73
2022/10/08 11:22:09;;;;;;;8.02;1.20;;;;;;;17.69;47.04;102334.16;6237383;22;20015;-73
2022/10/08 11:25:26;;;;;;;7.68;1.13;;;;;;;17.73;46.98;102333.31;6215369;22;20038;-72
2022/10/08 11:28:01;;;;;;;10.57;1.40;;;;;;;17.81;47.02;102331.59;6205116;22;20157;-71
2022/10/08 11:31:09;;;;;;;5.72;1.20;;;;;;;18.25;46.16;102330.97;6236938;22;20085;-73
2022/10/08 11:33:35;;;;;;;8.90;1.67;;;;;;;18.03;45.80;102331.75;6195891;22;20596;-73
2022/10/08 11:36:35;;;;;;;8.80;1.70;;;;;;;18.07;47.54;102342.31;6240902;22;20003;-73
2022/10/08 11:39:31;;;;;;;5.72;1.42;;;;;;;18.37;47.15;102340.72;6236630;22;20617;-72
2022/10/08 11:42:19;;;;;;;12.00;2.40;;;;;;;18.55;47.88;102339.06;6214423;22;20007;-73
2022/10/08 11:44:44;;;;;;;9.55;2.38;;;;;;;18.67;45.44;102343.50;6242775;22;20353;-73